Ship Status Report: callsign BAREU11

sailwx.info

Track history (hours):
 
Tides and Currents Weather Stations Pressure Air Temp Water Temp Dewpoint Dewpoint Depression Visibility Wind Speed Wind Dir Waves Ship Positions

Callsign BAREU11 (name unknown)

Last reported at 2015-Aug-28 06:00 UTC. Time now 2015-Aug-28 07:36 UTC.
Position N 48°42' W 007°48'.

Barometer 1014.5 mb

Date/timePositionNaut miles runAvg speedWind from/ knotsBaromVisibWave heightAir tempDewpointWater temp
2015-Aug-28 06:00N 48°42' W 007°48'1716.9 1014.5
2015-Aug-28 05:00N 48°48' W 007°24'1716.9 1013.9
2015-Aug-28 04:00N 48°54' W 007°00'1716.9 1013.6
2015-Aug-28 03:00N 49°00' W 006°36'1716.8 1013.4
2015-Aug-28 02:00N 49°06' W 006°12'1716.8 1013.3
2015-Aug-28 01:00N 49°18' W 005°54'1716.7 1013.3
2015-Aug-28 00:00N 49°24' W 005°30'1716.7 1013.1
2015-Aug-27 23:00N 49°30' W 005°06'1716.7 1013.2
2015-Aug-27 22:00N 49°36' W 004°42'1716.7 1012.8
2015-Aug-27 21:00N 49°42' W 004°18'1211.6 1012.2
2015-Aug-27 20:00N 49°42' W 004°00'1716.6 1011.6
2015-Aug-27 19:00N 49°48' W 003°36'1313.1 1010.6
2015-Aug-27 18:00N 49°54' W 003°18'1313.0 1010.1
2015-Aug-27 17:00N 50°00' W 003°00'1515.4 1009.5
2015-Aug-27 16:00N 50°00' W 002°36'1313.0 1009.1
2015-Aug-27 15:00N 50°06' W 002°18'1716.5 1008.7
2015-Aug-27 14:00N 50°12' W 001°54'1515.4 1008.6
2015-Aug-27 13:00N 50°12' W 001°30'1616.5 1008.9
2015-Aug-27 12:00N 50°18' W 001°06'1616.4 1008.6
2015-Aug-27 11:00N 50°24' W 000°42'1616.4 1008.3
2015-Aug-27 10:00N 50°30' W 000°18'1515.3 1008.1
2015-Aug-27 09:00N 50°30' E 000°06'1312.9 1007.2
2015-Aug-27 08:00N 50°36' E 000°24'1312.9 1007.2
2015-Aug-27 07:00N 50°42' E 000°42'1312.9 1006.6
2015-Aug-27 06:00N 50°48' E 001°00'1312.9 1007.1
2015-Aug-27 05:00N 50°54' E 001°18'1716.5 1006.5
2015-Aug-27 04:00N 51°06' E 001°36'1616.5 1006.5
2015-Aug-27 03:00N 51°18' E 001°54'1312.7 1006.5
2015-Aug-27 02:00N 51°24' E 002°12'1111.2 1006.7
2015-Aug-27 01:00N 51°24' E 002°30'1515.0 1006.5
2015-Aug-27 00:00N 51°24' E 002°54'1515.0 1006.2
2015-Aug-26 23:00N 51°24' E 003°18'1111.2 1005.9
2015-Aug-26 22:00N 51°24' E 003°36'1111.2 1006.8
2015-Aug-26 21:00N 51°24' E 003°54'7 7.5 1007.0
2015-Aug-26 20:00N 51°24' E 004°06'10 1.4 1007.2
2015-Aug-26 13:00N 51°18' E 004°18'0 0.0 1009.9
2015-Aug-26 03:00N 51°18' E 004°18'0 0.0 1012.3
2015-Aug-25 22:00N 51°18' E 004°18'0 0.0 1011.9
2015-Aug-25 19:00N 51°18' E 004°18'7 7.1 1011.7
2015-Aug-25 18:00N 51°24' E 004°12'1111.2 1011.4
2015-Aug-25 17:00N 51°24' E 003°54'1111.2 1011.7
2015-Aug-25 16:00N 51°24' E 003°36'1111.2 1012.0
2015-Aug-25 15:00N 51°24' E 003°18'1515.0 1011.8
2015-Aug-25 14:00N 51°24' E 002°54'1111.2 1012.2
2015-Aug-25 13:00N 51°24' E 002°36'1312.7 1011.7
2015-Aug-25 12:00N 51°18' E 002°18'1312.7 1012.0
2015-Aug-25 11:00N 51°24' E 002°00'7 7.1 1012.0
2015-Aug-25 10:00N 51°30' E 001°54'0 0.0 1011.1
2015-Aug-25 09:00N 51°30' E 001°54'0 0.0 1011.2
2015-Aug-25 08:00N 51°30' E 001°54'0 0.0 1011.4
2015-Aug-25 06:00N 51°30' E 001°54'0 0.0 1009.2
2015-Aug-25 05:00N 51°30' E 001°54'0 0.0 1008.8
2015-Aug-25 04:00N 51°30' E 001°54'1312.6 1007.8
2015-Aug-25 03:00N 51°42' E 001°48'7 7.1 1007.1
2015-Aug-25 02:00N 51°48' E 001°42'7 7.4 1005.5
2015-Aug-25 01:00N 51°48' E 001°30'1616.4 1005.0
2015-Aug-25 00:00N 51°36' E 001°12'1616.1 1004.9
2015-Aug-24 23:00N 51°30' E 000°48'11 1.6 1004.5
2015-Aug-24 16:00N 51°30' E 000°30'0 0.0 996.5
2015-Aug-24 08:00N 51°30' E 000°30'1514.9 999.2
2015-Aug-24 07:00N 51°30' E 000°54'1616.1 1000.2
2015-Aug-24 06:00N 51°36' E 001°18'1414.1 1000.5
2015-Aug-24 05:00N 51°48' E 001°30'1312.6 1001.0
2015-Aug-24 04:00N 51°54' E 001°48'1111.1 1001.6
2015-Aug-24 03:00N 51°54' E 002°06'1312.6 1002.4
2015-Aug-24 02:00N 52°00' E 002°24'1919.0 1002.6
2015-Aug-24 01:00N 52°12' E 002°48'1616.3 1002.8
2015-Aug-24 00:00N 52°24' E 003°06'1616.3 1002.8
2015-Aug-23 23:00N 52°36' E 003°24'1616.2 1003.2
2015-Aug-23 22:00N 52°48' E 003°42'1616.2 1003.5
2015-Aug-23 21:00N 53°00' E 004°00'1918.8 1004.1
2015-Aug-23 20:00N 53°12' E 004°24'1414.0 1003.9
2015-Aug-23 19:00N 53°24' E 004°36'1918.6 1004.7
2015-Aug-23 18:00N 53°36' E 005°00'1918.8 1006.0
2015-Aug-23 17:00N 53°42' E 005°30'1918.7 1006.6
2015-Aug-23 16:00N 53°48' E 006°00'1414.2 1007.9
2015-Aug-23 15:00N 53°48' E 006°24'1918.7 1009.5
2015-Aug-23 14:00N 53°54' E 006°54'1918.6 1010.8
2015-Aug-23 13:00N 54°00' E 007°24'1414.1 1012.2
2015-Aug-23 12:00N 54°00' E 007°48'7 7.1 1013.3
2015-Aug-23 11:00N 54°00' E 008°00'1110.6 1013.9
2015-Aug-23 10:00N 54°00' E 008°18'1515.3 1015.0
2015-Aug-23 09:00N 53°54' E 008°42'1414.1 1015.8
2015-Aug-23 08:00N 53°54' E 009°06'1212.2 1016.8
2015-Aug-23 07:00N 53°48' E 009°24'1413.9 1016.7
2015-Aug-23 06:00N 53°36' E 009°36'7 7.1 1017.1
2015-Aug-23 05:00N 53°36' E 009°48'7 0.1 1017.4
2015-Aug-21 04:00N 53°30' E 009°54'4 0.1 1025.2
2015-Aug-19 16:00N 53°30' E 010°00'0 0.0 1021.3
2015-Aug-18 14:00N 53°30' E 010°00'   1014.8
Track history (hours):
 
Tides and Currents Weather Stations Pressure Air Temp Water Temp Dewpoint Dewpoint Depression Visibility Wind Speed Wind Dir Waves Ship Positions

Callsign BAREU11 (name unknown)

Last reported at 2015-Aug-28 06:00 UTC. Time now 2015-Aug-28 07:36 UTC.
Position N 48°42' W 007°48'.

Barometer 1014.5 mb

Date/timePositionNaut miles runAvg speedWind from/ knotsBaromVisibWave heightAir tempDewpointWater temp
2015-Aug-28 06:00N 48°42' W 007°48'1716.9 1014.5
2015-Aug-28 05:00N 48°48' W 007°24'1716.9 1013.9
2015-Aug-28 04:00N 48°54' W 007°00'1716.9 1013.6
2015-Aug-28 03:00N 49°00' W 006°36'1716.8 1013.4
2015-Aug-28 02:00N 49°06' W 006°12'1716.8 1013.3
2015-Aug-28 01:00N 49°18' W 005°54'1716.7 1013.3
2015-Aug-28 00:00N 49°24' W 005°30'1716.7 1013.1
2015-Aug-27 23:00N 49°30' W 005°06'1716.7 1013.2
2015-Aug-27 22:00N 49°36' W 004°42'1716.7 1012.8
2015-Aug-27 21:00N 49°42' W 004°18'1211.6 1012.2
2015-Aug-27 20:00N 49°42' W 004°00'1716.6 1011.6
2015-Aug-27 19:00N 49°48' W 003°36'1313.1 1010.6
2015-Aug-27 18:00N 49°54' W 003°18'1313.0 1010.1
2015-Aug-27 17:00N 50°00' W 003°00'1515.4 1009.5
2015-Aug-27 16:00N 50°00' W 002°36'1313.0 1009.1
2015-Aug-27 15:00N 50°06' W 002°18'1716.5 1008.7
2015-Aug-27 14:00N 50°12' W 001°54'1515.4 1008.6
2015-Aug-27 13:00N 50°12' W 001°30'1616.5 1008.9
2015-Aug-27 12:00N 50°18' W 001°06'1616.4 1008.6
2015-Aug-27 11:00N 50°24' W 000°42'1616.4 1008.3
2015-Aug-27 10:00N 50°30' W 000°18'1515.3 1008.1
2015-Aug-27 09:00N 50°30' E 000°06'1312.9 1007.2
2015-Aug-27 08:00N 50°36' E 000°24'1312.9 1007.2
2015-Aug-27 07:00N 50°42' E 000°42'1312.9 1006.6
2015-Aug-27 06:00N 50°48' E 001°00'1312.9 1007.1
2015-Aug-27 05:00N 50°54' E 001°18'1716.5 1006.5
2015-Aug-27 04:00N 51°06' E 001°36'1616.5 1006.5
2015-Aug-27 03:00N 51°18' E 001°54'1312.7 1006.5
2015-Aug-27 02:00N 51°24' E 002°12'1111.2 1006.7
2015-Aug-27 01:00N 51°24' E 002°30'1515.0 1006.5
2015-Aug-27 00:00N 51°24' E 002°54'1515.0 1006.2
2015-Aug-26 23:00N 51°24' E 003°18'1111.2 1005.9
2015-Aug-26 22:00N 51°24' E 003°36'1111.2 1006.8
2015-Aug-26 21:00N 51°24' E 003°54'7 7.5 1007.0
2015-Aug-26 20:00N 51°24' E 004°06'10 1.4 1007.2
2015-Aug-26 13:00N 51°18' E 004°18'0 0.0 1009.9
2015-Aug-26 03:00N 51°18' E 004°18'0 0.0 1012.3
2015-Aug-25 22:00N 51°18' E 004°18'0 0.0 1011.9
2015-Aug-25 19:00N 51°18' E 004°18'7 7.1 1011.7
2015-Aug-25 18:00N 51°24' E 004°12'1111.2 1011.4
2015-Aug-25 17:00N 51°24' E 003°54'1111.2 1011.7
2015-Aug-25 16:00N 51°24' E 003°36'1111.2 1012.0
2015-Aug-25 15:00N 51°24' E 003°18'1515.0 1011.8
2015-Aug-25 14:00N 51°24' E 002°54'1111.2 1012.2
2015-Aug-25 13:00N 51°24' E 002°36'1312.7 1011.7
2015-Aug-25 12:00N 51°18' E 002°18'1312.7 1012.0
2015-Aug-25 11:00N 51°24' E 002°00'7 7.1 1012.0
2015-Aug-25 10:00N 51°30' E 001°54'0 0.0 1011.1
2015-Aug-25 09:00N 51°30' E 001°54'0 0.0 1011.2
2015-Aug-25 08:00N 51°30' E 001°54'0 0.0 1011.4
2015-Aug-25 06:00N 51°30' E 001°54'0 0.0 1009.2
2015-Aug-25 05:00N 51°30' E 001°54'0 0.0 1008.8
2015-Aug-25 04:00N 51°30' E 001°54'1312.6 1007.8
2015-Aug-25 03:00N 51°42' E 001°48'7 7.1 1007.1
2015-Aug-25 02:00N 51°48' E 001°42'7 7.4 1005.5
2015-Aug-25 01:00N 51°48' E 001°30'1616.4 1005.0
2015-Aug-25 00:00N 51°36' E 001°12'1616.1 1004.9
2015-Aug-24 23:00N 51°30' E 000°48'11 1.6 1004.5
2015-Aug-24 16:00N 51°30' E 000°30'0 0.0 996.5
2015-Aug-24 08:00N 51°30' E 000°30'1514.9 999.2
2015-Aug-24 07:00N 51°30' E 000°54'1616.1 1000.2
2015-Aug-24 06:00N 51°36' E 001°18'1414.1 1000.5
2015-Aug-24 05:00N 51°48' E 001°30'1312.6 1001.0
2015-Aug-24 04:00N 51°54' E 001°48'1111.1 1001.6
2015-Aug-24 03:00N 51°54' E 002°06'1312.6 1002.4
2015-Aug-24 02:00N 52°00' E 002°24'1919.0 1002.6
2015-Aug-24 01:00N 52°12' E 002°48'1616.3 1002.8
2015-Aug-24 00:00N 52°24' E 003°06'1616.3 1002.8
2015-Aug-23 23:00N 52°36' E 003°24'1616.2 1003.2
2015-Aug-23 22:00N 52°48' E 003°42'1616.2 1003.5
2015-Aug-23 21:00N 53°00' E 004°00'1918.8 1004.1
2015-Aug-23 20:00N 53°12' E 004°24'1414.0 1003.9
2015-Aug-23 19:00N 53°24' E 004°36'1918.6 1004.7
2015-Aug-23 18:00N 53°36' E 005°00'1918.8 1006.0
2015-Aug-23 17:00N 53°42' E 005°30'1918.7 1006.6
2015-Aug-23 16:00N 53°48' E 006°00'1414.2 1007.9
2015-Aug-23 15:00N 53°48' E 006°24'1918.7 1009.5
2015-Aug-23 14:00N 53°54' E 006°54'1918.6 1010.8
2015-Aug-23 13:00N 54°00' E 007°24'1414.1 1012.2
2015-Aug-23 12:00N 54°00' E 007°48'7 7.1 1013.3
2015-Aug-23 11:00N 54°00' E 008°00'1110.6 1013.9
2015-Aug-23 10:00N 54°00' E 008°18'1515.3 1015.0
2015-Aug-23 09:00N 53°54' E 008°42'1414.1 1015.8
2015-Aug-23 08:00N 53°54' E 009°06'1212.2 1016.8
2015-Aug-23 07:00N 53°48' E 009°24'1413.9 1016.7
2015-Aug-23 06:00N 53°36' E 009°36'7 7.1 1017.1
2015-Aug-23 05:00N 53°36' E 009°48'7 0.1 1017.4
2015-Aug-21 04:00N 53°30' E 009°54'4 0.1 1025.2
2015-Aug-19 16:00N 53°30' E 010°00'0 0.0 1021.3
2015-Aug-18 14:00N 53°30' E 010°00'   1014.8

Dump ship's entire track history